createdAt,value
2022-09-02T00:02:25.497Z,6.83
2022-09-02T00:04:53.031Z,7.67
2022-09-02T00:07:20.592Z,7.60
2022-09-02T00:09:49.128Z,9.67
2022-09-02T00:12:17.022Z,7.83
2022-09-02T00:14:44.614Z,9.67
2022-09-02T00:17:12.957Z,8.43
2022-09-02T00:19:40.561Z,7.70
2022-09-02T00:22:08.134Z,8.40
2022-09-02T00:24:35.708Z,7.20
2022-09-02T00:27:03.292Z,8.10
2022-09-02T00:29:30.858Z,7.70
2022-09-02T00:31:58.497Z,7.63
2022-09-02T00:34:26.813Z,9.30
2022-09-02T00:36:54.396Z,8.00
2022-09-02T00:39:21.980Z,7.90
2022-09-02T00:41:49.624Z,8.33
2022-09-02T00:44:17.188Z,8.73
2022-09-02T00:46:44.773Z,8.00
2022-09-02T00:49:17.912Z,8.93
2022-09-02T00:51:45.474Z,8.33
2022-09-02T00:54:13.817Z,8.37
2022-09-02T00:56:41.488Z,8.80
2022-09-02T00:59:09.065Z,9.50
2022-09-02T01:01:37.542Z,9.63
2022-09-02T01:04:04.992Z,8.40
2022-09-02T01:06:32.577Z,9.60
2022-09-02T01:09:03.617Z,9.00
2022-09-02T01:11:31.988Z,8.60
2022-09-02T01:14:00.331Z,9.40
2022-09-02T01:16:27.985Z,8.97
2022-09-02T01:18:55.866Z,9.77
2022-09-02T01:21:23.439Z,9.00
2022-09-02T01:23:51.012Z,9.45
2022-09-02T01:26:19.384Z,8.23
2022-09-02T01:28:47.757Z,8.73
2022-09-02T01:31:15.388Z,8.03
2022-09-02T01:33:43.443Z,12.63
2022-09-02T01:36:10.488Z,8.87
2022-09-02T01:38:38.072Z,7.13
2022-09-02T01:41:05.656Z,8.37
2022-09-02T01:43:33.998Z,9.23
2022-09-02T01:46:01.583Z,8.50
2022-09-02T01:48:30.156Z,8.37
2022-09-02T01:51:00.188Z,7.70
2022-09-02T01:53:27.731Z,8.13
2022-09-02T01:55:55.346Z,8.00
2022-09-02T01:58:22.933Z,9.60
2022-09-02T02:00:50.574Z,8.67
2022-09-02T02:03:18.127Z,8.47
2022-09-02T02:05:46.449Z,8.90
2022-09-02T02:08:14.043Z,11.90
2022-09-02T02:10:42.419Z,10.43
2022-09-02T02:13:10.776Z,9.53
2022-09-02T02:15:41.343Z,8.07
2022-09-02T02:18:08.957Z,9.65
2022-09-02T02:20:36.522Z,9.00
2022-09-02T02:23:04.105Z,9.25
2022-09-02T02:25:32.496Z,9.50
2022-09-02T02:28:00.101Z,8.30
2022-09-02T02:30:27.646Z,8.27
2022-09-02T02:32:55.229Z,8.30
2022-09-02T02:35:22.806Z,6.90
2022-09-02T02:37:50.377Z,8.82
2022-09-02T02:40:18.782Z,8.00
2022-09-02T02:42:46.324Z,9.33
2022-09-02T02:45:15.113Z,7.43
2022-09-02T02:47:42.272Z,7.63
2022-09-02T02:50:09.951Z,7.70
2022-09-02T02:52:37.538Z,7.20
2022-09-02T02:55:05.198Z,10.97
2022-09-02T02:57:32.821Z,7.70
2022-09-02T03:00:00.380Z,9.40
2022-09-02T03:02:28.139Z,8.17
2022-09-02T03:04:55.553Z,6.57
2022-09-02T03:07:23.138Z,7.32
2022-09-02T03:11:17.633Z,7.87
2022-09-02T03:13:45.996Z,9.30
2022-09-02T03:16:13.626Z,8.40
2022-09-02T03:18:41.194Z,8.03
2022-09-02T03:21:08.767Z,7.87
2022-09-02T03:23:36.341Z,8.70
2022-09-02T03:26:06.436Z,9.55
2022-09-02T03:28:34.020Z,7.93
2022-09-02T03:31:01.672Z,8.93
2022-09-02T03:33:29.207Z,8.23
2022-09-02T03:35:56.772Z,8.83
2022-09-02T03:38:24.346Z,9.65
2022-09-02T03:40:52.049Z,9.60
2022-09-02T03:43:19.656Z,9.27
2022-09-02T03:45:47.989Z,10.23
2022-09-02T03:48:15.573Z,20.20
2022-09-02T03:50:43.142Z,20.92
2022-09-02T03:53:19.452Z,12.37
2022-09-02T03:55:39.216Z,11.47
2022-09-02T03:58:08.670Z,13.15
2022-09-02T04:00:35.132Z,13.07
2022-09-02T04:03:02.754Z,9.10
2022-09-02T04:05:31.068Z,9.23
2022-09-02T04:07:58.653Z,8.57
2022-09-02T04:10:26.248Z,8.13
2022-09-02T04:12:53.830Z,6.73
2022-09-02T04:15:21.414Z,7.50
2022-09-02T04:17:49.008Z,8.80
2022-09-02T04:20:17.362Z,9.07
2022-09-02T04:22:44.934Z,7.13
2022-09-02T04:25:13.305Z,7.80
2022-09-02T04:27:40.889Z,8.70
2022-09-02T04:30:08.552Z,7.43
2022-09-02T04:32:40.488Z,9.93
2022-09-02T04:35:03.733Z,7.43
2022-09-02T04:37:31.306Z,7.47
2022-09-02T04:39:58.909Z,7.87
2022-09-02T04:42:26.790Z,7.67
2022-09-02T04:44:54.372Z,9.17
2022-09-02T04:47:21.965Z,9.50
2022-09-02T04:49:50.305Z,11.97
2022-09-02T04:52:17.890Z,8.40
2022-09-02T04:54:46.460Z,9.35
2022-09-02T04:57:14.033Z,8.73
2022-09-02T04:59:41.612Z,8.57
2022-09-02T05:02:10.398Z,7.77
2022-09-02T05:04:37.908Z,8.40
2022-09-02T05:07:05.492Z,8.90
2022-09-02T05:09:33.107Z,9.00
2022-09-02T05:12:00.677Z,12.77
2022-09-02T05:14:28.253Z,7.90
2022-09-02T05:16:55.857Z,10.17
2022-09-02T05:19:24.199Z,8.87
2022-09-02T05:21:51.784Z,14.20
2022-09-02T05:24:24.495Z,11.27
2022-09-02T05:26:48.497Z,10.83
2022-09-02T05:29:16.076Z,8.13
2022-09-02T05:31:43.698Z,8.80
2022-09-02T05:34:11.269Z,11.55
2022-09-02T05:36:38.893Z,10.50
2022-09-02T05:39:06.822Z,9.60
2022-09-02T05:41:34.385Z,7.33
2022-09-02T05:44:03.615Z,8.50
2022-09-02T05:46:29.639Z,9.30
2022-09-02T05:49:06.494Z,9.90
2022-09-02T05:51:43.281Z,8.57
2022-09-02T05:54:11.657Z,10.23
2022-09-02T05:56:39.207Z,8.73
2022-09-02T05:59:06.821Z,7.73
2022-09-02T06:01:34.423Z,8.70
2022-09-02T06:04:01.984Z,8.93
2022-09-02T06:06:29.587Z,9.47
2022-09-02T06:08:57.152Z,9.40
2022-09-02T06:11:24.727Z,12.03
2022-09-02T06:13:52.369Z,11.13
2022-09-02T06:16:20.022Z,8.27
2022-09-02T06:18:47.529Z,6.87
2022-09-02T06:21:15.142Z,11.23
2022-09-02T06:23:42.718Z,5.80
2022-09-02T06:26:10.299Z,6.23
2022-09-02T06:28:37.942Z,5.53
2022-09-02T06:31:11.184Z,5.87
2022-09-02T06:33:38.701Z,7.63
2022-09-02T06:36:06.326Z,6.47
2022-09-02T06:38:33.909Z,11.70
2022-09-02T06:41:01.484Z,6.67
2022-09-02T06:43:29.107Z,4.27
2022-09-02T06:45:56.770Z,8.10
2022-09-02T06:48:24.264Z,4.77
2022-09-02T06:50:51.878Z,6.97
2022-09-02T06:53:20.267Z,6.67
2022-09-02T06:55:47.814Z,5.97
2022-09-02T06:58:16.185Z,6.43
2022-09-02T07:00:44.527Z,7.43
2022-09-02T07:03:30.100Z,10.50
2022-09-02T07:06:09.510Z,6.30
2022-09-02T07:08:40.233Z,4.07
2022-09-02T07:11:07.808Z,3.97
2022-09-02T07:13:35.382Z,6.30
2022-09-02T07:16:02.987Z,4.93
2022-09-02T07:18:31.348Z,5.80
2022-09-02T07:20:58.912Z,4.67
2022-09-02T07:23:26.515Z,5.20
2022-09-02T07:25:54.099Z,4.00
2022-09-02T07:28:21.664Z,3.80
2022-09-02T07:30:49.310Z,6.67
2022-09-02T07:33:17.713Z,5.37
2022-09-02T07:35:45.193Z,4.27
2022-09-02T07:38:12.807Z,6.97
2022-09-02T07:40:40.445Z,6.60
2022-09-02T07:43:07.975Z,3.00
2022-09-02T07:45:35.619Z,3.50
2022-09-02T07:48:03.154Z,3.67
2022-09-02T07:50:30.739Z,4.37
2022-09-02T07:52:58.383Z,4.27
2022-09-02T07:55:25.954Z,4.47
2022-09-02T07:57:53.518Z,3.72
2022-09-02T08:00:21.122Z,4.50
2022-09-02T08:02:48.812Z,6.55
2022-09-02T08:05:16.296Z,5.43
2022-09-02T08:07:44.264Z,4.53
2022-09-02T08:10:11.829Z,3.03
2022-09-02T08:12:39.413Z,2.87
2022-09-02T08:15:07.844Z,2.30
2022-09-02T08:17:35.418Z,2.97
2022-09-02T08:20:03.004Z,5.37
2022-09-02T08:25:01.084Z,5.43
2022-09-02T08:27:28.688Z,4.43
2022-09-02T08:29:57.059Z,3.13
2022-09-02T08:32:24.643Z,2.43
2022-09-02T08:34:52.219Z,4.23
2022-09-02T08:37:19.821Z,2.80
2022-09-02T08:39:51.058Z,4.53
2022-09-02T08:42:21.773Z,3.23
2022-09-02T08:44:49.397Z,4.97
2022-09-02T08:47:16.960Z,2.22
2022-09-02T08:49:44.544Z,3.47
2022-09-02T08:52:17.180Z,2.70
2022-09-02T08:54:42.410Z,1.77
2022-09-02T08:57:09.984Z,1.70
2022-09-02T08:59:37.698Z,5.87
2022-09-02T09:02:17.817Z,1.70
2022-09-02T09:04:51.195Z,1.87
2022-09-02T09:10:19.276Z,4.40
2022-09-02T09:12:52.182Z,3.40
2022-09-02T09:15:38.118Z,1.80
2022-09-02T09:18:05.692Z,3.13
2022-09-02T09:20:33.275Z,1.97
2022-09-02T09:23:00.879Z,1.70
2022-09-02T09:25:32.007Z,2.17
2022-09-02T09:28:00.349Z,2.40
2022-09-02T09:30:27.953Z,6.13
2022-09-02T09:32:55.538Z,2.40
2022-09-02T09:35:23.112Z,5.40
2022-09-02T09:37:56.410Z,3.47
2022-09-02T09:40:24.031Z,1.40
2022-09-02T09:45:37.806Z,1.73
2022-09-02T09:48:11.200Z,1.70
2022-09-02T09:50:38.791Z,3.33
2022-09-02T09:53:27.552Z,2.50
2022-09-02T09:55:57.996Z,2.57
2022-09-02T09:58:28.496Z,1.53
2022-09-02T10:00:56.485Z,3.63
2022-09-02T10:03:24.040Z,4.03
2022-09-02T10:05:54.282Z,1.43
2022-09-02T10:08:21.893Z,3.60
2022-09-02T10:11:01.199Z,2.22
2022-09-02T10:13:32.283Z,1.60
2022-09-02T10:16:05.597Z,1.30
2022-09-02T10:18:33.142Z,3.60
2022-09-02T10:21:17.392Z,1.40
2022-09-02T10:24:08.789Z,3.53
2022-09-02T10:26:39.493Z,3.30
2022-09-02T10:29:10.375Z,2.57
2022-09-02T10:31:53.856Z,3.53
2022-09-02T10:34:39.513Z,2.37
2022-09-02T10:37:22.387Z,3.47
2022-09-02T10:40:08.116Z,1.52
2022-09-02T10:42:44.711Z,1.93
2022-09-02T10:45:25.116Z,3.97
2022-09-02T10:48:11.397Z,2.10
2022-09-02T10:50:41.452Z,3.57
2022-09-02T10:53:11.832Z,4.37
2022-09-02T10:55:57.750Z,2.28
2022-09-02T10:58:43.678Z,2.53
2022-09-02T11:01:11.367Z,4.70
2022-09-02T11:03:41.774Z,1.98
2022-09-02T11:06:14.798Z,1.00
2022-09-02T11:08:54.502Z,2.93
2022-09-02T11:11:40.361Z,2.53
2022-09-02T11:14:32.929Z,3.53
2022-09-02T11:17:05.916Z,1.20
2022-09-02T11:19:35.951Z,3.70
2022-09-02T11:22:04.293Z,4.80
2022-09-02T11:24:31.866Z,2.70
2022-09-02T11:27:02.640Z,6.43
2022-09-02T11:30:00.560Z,3.90
2022-09-02T11:32:39.792Z,1.57
2022-09-02T11:35:07.396Z,3.67
2022-09-02T11:37:47.750Z,4.40
2022-09-02T11:40:36.083Z,1.07
2022-09-02T11:43:25.542Z,3.30
2022-09-02T11:45:58.832Z,1.30
2022-09-02T11:48:27.100Z,8.20
2022-09-02T11:51:06.302Z,1.73
2022-09-02T11:53:39.578Z,1.27
2022-09-02T11:56:19.105Z,2.87
2022-09-02T11:58:47.458Z,2.07
2022-09-02T12:01:30.223Z,1.67
2022-09-02T12:06:28.133Z,2.93
2022-09-02T12:08:55.657Z,1.10
2022-09-02T12:11:41.326Z,3.20
2022-09-02T12:14:09.719Z,2.80
2022-09-02T12:16:37.356Z,4.57
2022-09-02T12:19:04.885Z,1.67
2022-09-02T12:21:32.501Z,2.03
2022-09-02T12:24:00.135Z,1.25
2022-09-02T12:26:31.507Z,4.00
2022-09-02T12:29:11.214Z,2.37
2022-09-02T12:31:48.010Z,2.03
2022-09-02T12:34:21.313Z,1.40
2022-09-02T12:36:52.549Z,2.60
2022-09-02T12:39:23.949Z,2.47
2022-09-02T12:41:55.304Z,5.40
2022-09-02T12:44:47.474Z,1.20
2022-09-02T12:47:23.998Z,2.95
2022-09-02T12:50:06.548Z,4.40
2022-09-02T12:52:52.693Z,2.93
2022-09-02T12:55:20.274Z,1.20
2022-09-02T12:57:47.837Z,1.40
2022-09-02T13:00:15.460Z,2.50
2022-09-02T13:02:45.783Z,2.90
2022-09-02T13:05:43.603Z,1.73
2022-09-02T13:08:41.630Z,2.03
2022-09-02T13:11:46.147Z,4.22
2022-09-02T13:14:28.765Z,2.65
2022-09-02T13:17:36.134Z,1.30
2022-09-02T13:20:02.818Z,4.03
2022-09-02T13:22:52.106Z,3.30
2022-09-02T13:25:29.219Z,9.17
2022-09-02T13:28:15.165Z,2.10
2022-09-02T13:31:07.249Z,0.97
2022-09-02T13:33:36.042Z,1.80
2022-09-02T13:36:02.434Z,3.03
2022-09-02T13:38:30.099Z,2.37
2022-09-02T13:40:57.638Z,1.07
2022-09-02T13:43:26.168Z,2.47
2022-09-02T13:45:52.911Z,2.30
2022-09-02T13:48:24.533Z,2.25
2022-09-02T13:50:52.014Z,1.47
2022-09-02T13:54:05.501Z,1.20
2022-09-02T13:55:58.175Z,1.53
2022-09-02T13:58:31.538Z,1.00
2022-09-02T14:01:02.271Z,2.87
2022-09-02T14:03:28.443Z,2.50
2022-09-02T14:05:55.665Z,3.33
2022-09-02T14:08:23.399Z,4.03
2022-09-02T14:10:50.883Z,4.33
2022-09-02T14:13:18.455Z,2.67
2022-09-02T14:15:46.158Z,2.50
2022-09-02T14:18:18.091Z,5.65
2022-09-02T14:21:11.801Z,2.80
2022-09-02T14:23:39.384Z,2.90
2022-09-02T14:26:06.971Z,1.87
2022-09-02T14:28:35.139Z,1.97
2022-09-02T14:31:03.606Z,1.00
2022-09-02T14:33:37.049Z,1.00
2022-09-02T14:36:08.316Z,1.00
2022-09-02T14:38:35.881Z,1.70
2022-09-02T14:41:18.546Z,1.50
2022-09-02T14:43:48.806Z,2.37
2022-09-02T14:46:25.558Z,4.20
2022-09-02T14:48:53.125Z,1.13
2022-09-02T14:51:21.456Z,1.27
2022-09-02T14:53:49.070Z,2.93
2022-09-02T14:56:16.651Z,2.37
2022-09-02T14:58:44.620Z,3.43
2022-09-02T15:01:13.291Z,1.77
2022-09-02T15:03:40.755Z,1.23
2022-09-02T15:06:13.144Z,1.60
2022-09-02T15:08:36.690Z,1.60
2022-09-02T15:11:04.276Z,1.20
2022-09-02T15:13:34.666Z,1.73
2022-09-02T15:16:03.209Z,1.23
2022-09-02T15:18:31.408Z,1.13
2022-09-02T15:20:59.745Z,2.10
2022-09-02T15:23:27.371Z,3.73
2022-09-02T15:25:55.697Z,1.37
2022-09-02T15:28:23.259Z,1.03
2022-09-02T15:30:50.910Z,1.23
2022-09-02T15:33:18.562Z,1.80
2022-09-02T15:35:46.049Z,3.13
2022-09-02T15:38:13.671Z,1.17
2022-09-02T15:40:41.253Z,1.53
2022-09-02T15:43:08.838Z,2.00
2022-09-02T15:45:39.925Z,2.83
2022-09-02T15:48:07.508Z,1.33
2022-09-02T15:50:35.093Z,3.43
2022-09-02T15:53:03.486Z,3.20
2022-09-02T15:55:34.880Z,2.33
2022-09-02T15:58:02.474Z,1.43
2022-09-02T16:00:30.166Z,1.47
2022-09-02T16:03:00.395Z,3.23
2022-09-02T16:05:27.920Z,2.20
2022-09-02T16:07:56.311Z,2.17
2022-09-02T16:10:24.652Z,3.20
2022-09-02T16:12:52.223Z,1.47
2022-09-02T16:15:19.843Z,2.62
2022-09-02T16:17:47.428Z,1.57
2022-09-02T16:20:19.158Z,2.87
2022-09-02T16:22:42.605Z,1.20
2022-09-02T16:25:10.176Z,1.85
2022-09-02T16:27:53.079Z,1.50
2022-09-02T16:30:20.627Z,1.80
2022-09-02T16:32:48.165Z,0.87
2022-09-02T16:35:15.780Z,1.85
2022-09-02T16:37:43.457Z,1.77
2022-09-02T16:40:11.848Z,1.77
2022-09-02T16:42:39.695Z,2.13
2022-09-02T16:45:09.227Z,2.13
2022-09-02T16:47:36.859Z,1.27
2022-09-02T16:50:04.480Z,2.03
2022-09-02T16:52:32.084Z,1.20
2022-09-02T16:54:59.609Z,1.63
2022-09-02T16:57:27.239Z,1.33
2022-09-02T16:59:54.804Z,2.05
2022-09-02T17:02:23.193Z,1.50
2022-09-02T17:04:50.746Z,3.83
2022-09-02T17:07:19.083Z,1.17
2022-09-02T17:09:46.658Z,0.93
2022-09-02T17:12:14.631Z,1.87
2022-09-02T17:14:42.185Z,2.20
2022-09-02T17:17:09.797Z,1.27
2022-09-02T17:19:37.373Z,1.67
2022-09-02T17:22:04.947Z,1.50
2022-09-02T17:24:32.521Z,2.23
2022-09-02T17:27:00.129Z,1.67
2022-09-02T17:31:55.264Z,1.43
2022-09-02T17:34:22.924Z,1.13
2022-09-02T17:36:50.503Z,0.90
2022-09-02T17:39:18.106Z,2.97
2022-09-02T17:41:54.724Z,1.20
2022-09-02T17:44:22.304Z,3.00
2022-09-02T17:46:49.891Z,1.07
2022-09-02T17:49:17.974Z,3.73
2022-09-02T17:51:45.133Z,2.53
2022-09-02T17:54:13.472Z,1.20
2022-09-02T17:57:09.098Z,1.43
2022-09-02T18:00:04.261Z,3.35
2022-09-02T18:02:55.417Z,2.62
2022-09-02T18:05:28.857Z,3.10
2022-09-02T18:08:03.601Z,2.40
2022-09-02T18:10:34.104Z,2.50
2022-09-02T18:13:04.585Z,3.08
2022-09-02T18:15:32.223Z,2.50
2022-09-02T18:17:59.799Z,1.62
2022-09-02T18:20:27.531Z,1.80
2022-09-02T18:23:25.333Z,2.00
2022-09-02T18:26:29.848Z,1.20
2022-09-02T18:29:06.269Z,3.83
2022-09-02T18:31:40.362Z,1.80
2022-09-02T18:34:14.343Z,4.90
2022-09-02T18:37:06.334Z,1.57
2022-09-02T18:40:11.166Z,2.10
2022-09-02T18:43:02.765Z,1.20
2022-09-02T18:45:34.209Z,1.63
2022-09-02T18:48:13.831Z,3.93
2022-09-02T18:50:57.123Z,2.00
2022-09-02T18:53:09.256Z,1.83
2022-09-02T18:55:36.842Z,1.73
2022-09-02T18:58:08.189Z,4.10
2022-09-02T19:00:35.734Z,1.30
2022-09-02T19:03:03.303Z,2.07
2022-09-02T19:05:30.915Z,2.20
2022-09-02T19:08:22.329Z,1.30
2022-09-02T19:10:49.949Z,3.30
2022-09-02T19:13:18.302Z,1.73
2022-09-02T19:15:45.885Z,3.43
2022-09-02T19:18:13.489Z,2.70
2022-09-02T19:20:41.049Z,2.17
2022-09-02T19:23:08.706Z,4.90
2022-09-02T19:25:36.341Z,2.37
2022-09-02T19:28:04.672Z,1.67
2022-09-02T19:30:32.260Z,5.53
2022-09-02T19:32:59.875Z,1.92
2022-09-02T19:35:27.458Z,4.67
2022-09-02T19:37:55.081Z,3.30
2022-09-02T19:40:28.618Z,1.40
2022-09-02T19:42:56.192Z,3.50
2022-09-02T19:45:23.827Z,1.90
2022-09-02T19:48:08.826Z,2.60
2022-09-02T19:50:20.509Z,1.87
2022-09-02T19:52:48.083Z,3.70
2022-09-02T19:55:16.546Z,3.87
2022-09-02T19:57:44.160Z,2.73
2022-09-02T20:00:11.743Z,1.93
2022-09-02T20:02:42.181Z,2.37
2022-09-02T20:05:09.743Z,1.83
2022-09-02T20:07:37.317Z,2.00
2022-09-02T20:10:04.940Z,3.00
2022-09-02T20:12:32.520Z,3.70
2022-09-02T20:15:02.830Z,2.30
2022-09-02T20:17:30.461Z,1.67
2022-09-02T20:19:58.040Z,3.07
2022-09-02T20:22:25.617Z,2.53
2022-09-02T20:24:54.500Z,3.63
2022-09-02T20:27:24.949Z,4.33
2022-09-02T20:29:52.523Z,2.30
2022-09-02T20:32:41.966Z,1.85
2022-09-02T20:35:15.062Z,4.20
2022-09-02T20:37:50.190Z,5.43
2022-09-02T20:40:33.829Z,3.40
2022-09-02T20:43:04.292Z,1.93
2022-09-02T20:45:37.388Z,2.37
2022-09-02T20:48:24.692Z,1.97
2022-09-02T20:51:01.223Z,1.77
2022-09-02T20:53:55.600Z,2.67
2022-09-02T20:56:26.600Z,2.50
2022-09-02T20:58:59.536Z,3.15
2022-09-02T21:01:32.777Z,2.60
2022-09-02T21:04:04.348Z,1.87
2022-09-02T21:06:35.878Z,1.73
2022-09-02T21:09:20.258Z,2.27
2022-09-02T21:11:50.540Z,5.60
2022-09-02T21:14:18.124Z,4.17
2022-09-02T21:16:55.033Z,2.17
2022-09-02T21:19:34.963Z,3.70
2022-09-02T21:22:20.606Z,2.83
2022-09-02T21:24:59.773Z,1.97
2022-09-02T21:27:27.391Z,1.70
2022-09-02T21:30:07.145Z,6.00
2022-09-02T21:32:37.566Z,1.92
2022-09-02T21:35:20.282Z,2.53
2022-09-02T21:37:47.910Z,3.07
2022-09-02T21:40:18.192Z,3.20
2022-09-02T21:43:04.947Z,1.90
2022-09-02T21:45:35.346Z,3.07
2022-09-02T21:48:27.476Z,3.83
2022-09-02T21:50:55.051Z,2.43
2022-09-02T21:53:22.624Z,1.40
2022-09-02T21:56:08.296Z,2.23
2022-09-02T21:59:09.465Z,3.50
2022-09-02T22:01:46.367Z,2.23
2022-09-02T22:04:43.995Z,1.30
2022-09-02T22:07:21.209Z,1.20
2022-09-02T22:09:51.264Z,1.27
2022-09-02T22:12:19.607Z,1.60
2022-09-02T22:14:59.033Z,2.37
2022-09-02T22:17:35.193Z,2.57
2022-09-02T22:20:02.783Z,1.20
2022-09-02T22:22:30.419Z,3.20
2022-09-02T22:24:58.020Z,1.23
2022-09-02T22:27:32.489Z,2.00
2022-09-02T22:30:06.367Z,2.43
2022-09-02T22:32:36.848Z,1.10
2022-09-02T22:35:19.172Z,1.10
2022-09-02T22:37:50.039Z,1.97
2022-09-02T22:40:18.342Z,4.60
2022-09-02T22:42:46.241Z,2.50
2022-09-02T22:45:37.840Z,5.23
2022-09-02T22:48:29.993Z,1.90
2022-09-02T22:51:18.961Z,1.27
2022-09-02T22:53:43.964Z,2.77
2022-09-02T22:56:13.565Z,3.33
2022-09-02T22:58:51.872Z,2.47
2022-09-02T23:01:25.545Z,2.72
2022-09-02T23:03:53.084Z,2.37
2022-09-02T23:06:26.623Z,4.17
2022-09-02T23:08:56.846Z,2.03
2022-09-02T23:11:27.551Z,1.60
2022-09-02T23:14:17.309Z,1.90
2022-09-02T23:17:22.053Z,2.20
2022-09-02T23:19:55.681Z,1.53
2022-09-02T23:22:34.993Z,1.83
2022-09-02T23:25:14.482Z,2.63
2022-09-02T23:27:48.427Z,2.73
2022-09-02T23:30:15.999Z,3.13
2022-09-02T23:33:21.624Z,2.93
2022-09-02T23:36:13.183Z,5.27
2022-09-02T23:38:55.906Z,2.57
2022-09-02T23:41:23.480Z,3.33
2022-09-02T23:43:51.054Z,5.15
2022-09-02T23:46:55.985Z,3.72
2022-09-02T23:49:38.180Z,2.47
2022-09-02T23:52:27.939Z,2.53
2022-09-02T23:55:07.603Z,4.93
2022-09-02T23:57:43.894Z,11.27
